sensor_id;sensor_type;location;lat;lon;timestamp;pressure;altitude;pressure_sealevel;temperature;humidity
69058;BME280;56128;37.534;-122.308;2023-03-04T00:02:03;101410.13;;;11.92;100.00
69058;BME280;56128;37.534;-122.308;2023-03-04T00:04:30;101400.47;;;11.89;100.00
69058;BME280;56128;37.534;-122.308;2023-03-04T00:06:56;101405.19;;;11.85;100.00
69058;BME280;56128;37.534;-122.308;2023-03-04T00:09:22;101402.53;;;11.85;100.00
69058;BME280;56128;37.534;-122.308;2023-03-04T00:11:48;101408.66;;;11.88;100.00
69058;BME280;56128;37.534;-122.308;2023-03-04T00:14:14;101416.47;;;11.78;100.00
69058;BME280;56128;37.534;-122.308;2023-03-04T00:16:41;101427.31;;;11.76;100.00
69058;BME280;56128;37.534;-122.308;2023-03-04T00:19:08;101413.81;;;11.65;100.00
69058;BME280;56128;37.534;-122.308;2023-03-04T00:21:34;101412.84;;;11.66;100.00
69058;BME280;56128;37.534;-122.308;2023-03-04T00:24:01;101409.44;;;11.51;100.00
69058;BME280;56128;37.534;-122.308;2023-03-04T00:26:27;101420.03;;;11.52;100.00
69058;BME280;56128;37.534;-122.308;2023-03-04T00:28:53;101416.81;;;11.47;100.00
69058;BME280;56128;37.534;-122.308;2023-03-04T00:31:19;101415.28;;;11.30;100.00
69058;BME280;56128;37.534;-122.308;2023-03-04T00:33:45;101420.66;;;11.17;100.00
69058;BME280;56128;37.534;-122.308;2023-03-04T00:36:12;101413.97;;;10.97;100.00
69058;BME280;56128;37.534;-122.308;2023-03-04T00:38:38;101419.31;;;10.84;100.00
69058;BME280;56128;37.534;-122.308;2023-03-04T00:41:04;101412.75;;;10.76;100.00
69058;BME280;56128;37.534;-122.308;2023-03-04T00:43:31;101401.44;;;10.58;100.00
69058;BME280;56128;37.534;-122.308;2023-03-04T00:45:57;101408.72;;;10.55;100.00
69058;BME280;56128;37.534;-122.308;2023-03-04T00:48:24;101412.38;;;10.40;100.00
69058;BME280;56128;37.534;-122.308;2023-03-04T00:50:50;101413.72;;;10.33;100.00
69058;BME280;56128;37.534;-122.308;2023-03-04T00:53:19;101407.72;;;10.29;100.00
69058;BME280;56128;37.534;-122.308;2023-03-04T00:55:46;101411.06;;;10.18;100.00
69058;BME280;56128;37.534;-122.308;2023-03-04T00:58:12;101412.06;;;10.03;100.00
69058;BME280;56128;37.534;-122.308;2023-03-04T01:00:38;101416.53;;;10.02;100.00
69058;BME280;56128;37.534;-122.308;2023-03-04T01:03:04;101417.41;;;9.88;100.00
69058;BME280;56128;37.534;-122.308;2023-03-04T01:05:30;101419.31;;;9.72;100.00
69058;BME280;56128;37.534;-122.308;2023-03-04T01:07:59;101424.94;;;9.67;100.00
69058;BME280;56128;37.534;-122.308;2023-03-04T01:10:25;101417.50;;;9.58;100.00
69058;BME280;56128;37.534;-122.308;2023-03-04T01:12:51;101422.66;;;9.47;100.00
69058;BME280;56128;37.534;-122.308;2023-03-04T01:15:17;101432.19;;;9.36;100.00
69058;BME280;56128;37.534;-122.308;2023-03-04T01:17:44;101414.50;;;9.19;100.00
69058;BME280;56128;37.534;-122.308;2023-03-04T01:20:11;101419.25;;;9.14;100.00
69058;BME280;56128;37.534;-122.308;2023-03-04T01:22:37;101421.44;;;9.07;100.00
69058;BME280;56128;37.534;-122.308;2023-03-04T01:25:04;101436.00;;;9.02;100.00
69058;BME280;56128;37.534;-122.308;2023-03-04T01:27:31;101425.88;;;8.92;100.00
69058;BME280;56128;37.534;-122.308;2023-03-04T01:29:57;101426.34;;;8.85;100.00
69058;BME280;56128;37.534;-122.308;2023-03-04T01:32:23;101433.13;;;8.74;100.00
69058;BME280;56128;37.534;-122.308;2023-03-04T01:34:50;101429.19;;;8.66;100.00
69058;BME280;56128;37.534;-122.308;2023-03-04T01:37:16;101431.88;;;8.50;100.00
69058;BME280;56128;37.534;-122.308;2023-03-04T01:39:42;101436.59;;;8.44;100.00
69058;BME280;56128;37.534;-122.308;2023-03-04T01:42:19;101440.44;;;8.39;100.00
69058;BME280;56128;37.534;-122.308;2023-03-04T01:44:47;101437.63;;;8.26;100.00
69058;BME280;56128;37.534;-122.308;2023-03-04T01:47:14;101429.09;;;8.19;100.00
69058;BME280;56128;37.534;-122.308;2023-03-04T01:49:41;101426.94;;;8.10;100.00
69058;BME280;56128;37.534;-122.308;2023-03-04T01:52:12;101440.44;;;8.07;100.00
69058;BME280;56128;37.534;-122.308;2023-03-04T01:54:39;101422.38;;;7.96;100.00
69058;BME280;56128;37.534;-122.308;2023-03-04T01:57:15;101431.63;;;7.89;100.00
69058;BME280;56128;37.534;-122.308;2023-03-04T01:59:42;101421.22;;;7.84;100.00
69058;BME280;56128;37.534;-122.308;2023-03-04T02:02:08;101422.75;;;7.72;100.00
69058;BME280;56128;37.534;-122.308;2023-03-04T02:04:35;101423.94;;;7.67;100.00
69058;BME280;56128;37.534;-122.308;2023-03-04T02:07:04;101429.63;;;7.60;100.00
69058;BME280;56128;37.534;-122.308;2023-03-04T02:09:32;101440.50;;;7.56;100.00
69058;BME280;56128;37.534;-122.308;2023-03-04T02:11:59;101444.88;;;7.57;100.00
69058;BME280;56128;37.534;-122.308;2023-03-04T02:14:25;101445.25;;;7.49;100.00
69058;BME280;56128;37.534;-122.308;2023-03-04T02:16:52;101443.72;;;7.45;100.00
69058;BME280;56128;37.534;-122.308;2023-03-04T02:19:41;101444.97;;;7.38;100.00
69058;BME280;56128;37.534;-122.308;2023-03-04T02:22:13;101434.91;;;7.27;100.00
69058;BME280;56128;37.534;-122.308;2023-03-04T02:24:46;101444.84;;;7.23;100.00
69058;BME280;56128;37.534;-122.308;2023-03-04T02:27:14;101442.47;;;7.17;100.00
69058;BME280;56128;37.534;-122.308;2023-03-04T02:29:40;101430.41;;;7.10;100.00
69058;BME280;56128;37.534;-122.308;2023-03-04T02:32:10;101438.00;;;7.00;100.00
69058;BME280;56128;37.534;-122.308;2023-03-04T02:34:39;101451.63;;;6.94;100.00
69058;BME280;56128;37.534;-122.308;2023-03-04T02:37:08;101449.22;;;6.89;100.00
69058;BME280;56128;37.534;-122.308;2023-03-04T02:39:39;101452.78;;;6.88;100.00
69058;BME280;56128;37.534;-122.308;2023-03-04T02:42:07;101447.56;;;6.87;100.00
69058;BME280;56128;37.534;-122.308;2023-03-04T02:44:36;101442.53;;;6.80;100.00
69058;BME280;56128;37.534;-122.308;2023-03-04T02:47:06;101444.31;;;6.80;100.00
69058;BME280;56128;37.534;-122.308;2023-03-04T02:49:33;101433.84;;;6.77;100.00
69058;BME280;56128;37.534;-122.308;2023-03-04T02:52:05;101447.94;;;6.79;100.00
69058;BME280;56128;37.534;-122.308;2023-03-04T02:54:31;101443.69;;;6.75;100.00
69058;BME280;56128;37.534;-122.308;2023-03-04T02:57:01;101451.59;;;6.76;100.00
69058;BME280;56128;37.534;-122.308;2023-03-04T02:59:27;101459.66;;;6.75;100.00
69058;BME280;56128;37.534;-122.308;2023-03-04T03:01:53;101467.41;;;6.79;100.00
69058;BME280;56128;37.534;-122.308;2023-03-04T03:04:21;101467.34;;;6.81;100.00
69058;BME280;56128;37.534;-122.308;2023-03-04T03:06:48;101469.34;;;6.76;100.00
69058;BME280;56128;37.534;-122.308;2023-03-04T03:09:14;101468.50;;;6.75;100.00
69058;BME280;56128;37.534;-122.308;2023-03-04T03:11:40;101485.31;;;6.76;100.00
69058;BME280;56128;37.534;-122.308;2023-03-04T03:14:07;101487.19;;;6.74;100.00
69058;BME280;56128;37.534;-122.308;2023-03-04T03:16:33;101479.28;;;6.72;100.00
69058;BME280;56128;37.534;-122.308;2023-03-04T03:19:00;101481.19;;;6.70;100.00
69058;BME280;56128;37.534;-122.308;2023-03-04T03:21:26;101473.25;;;6.69;100.00
69058;BME280;56128;37.534;-122.308;2023-03-04T03:23:52;101469.94;;;6.63;100.00
69058;BME280;56128;37.534;-122.308;2023-03-04T03:26:19;101475.28;;;6.63;100.00
69058;BME280;56128;37.534;-122.308;2023-03-04T03:28:45;101480.47;;;6.66;100.00
69058;BME280;56128;37.534;-122.308;2023-03-04T03:31:12;101478.09;;;6.60;100.00
69058;BME280;56128;37.534;-122.308;2023-03-04T03:33:38;101465.84;;;6.56;100.00
69058;BME280;56128;37.534;-122.308;2023-03-04T03:36:05;101472.91;;;6.57;100.00
69058;BME280;56128;37.534;-122.308;2023-03-04T03:38:32;101472.44;;;6.49;100.00
69058;BME280;56128;37.534;-122.308;2023-03-04T03:40:58;101475.94;;;6.49;100.00
69058;BME280;56128;37.534;-122.308;2023-03-04T03:43:25;101470.78;;;6.46;100.00
69058;BME280;56128;37.534;-122.308;2023-03-04T03:45:51;101466.69;;;6.39;100.00
69058;BME280;56128;37.534;-122.308;2023-03-04T03:48:17;101470.28;;;6.38;100.00
69058;BME280;56128;37.534;-122.308;2023-03-04T03:50:44;101469.53;;;6.34;100.00
69058;BME280;56128;37.534;-122.308;2023-03-04T03:53:10;101474.00;;;6.34;100.00
69058;BME280;56128;37.534;-122.308;2023-03-04T03:55:36;101459.19;;;6.28;100.00
69058;BME280;56128;37.534;-122.308;2023-03-04T03:58:04;101473.41;;;6.27;100.00
69058;BME280;56128;37.534;-122.308;2023-03-04T04:00:30;101474.44;;;6.25;100.00
69058;BME280;56128;37.534;-122.308;2023-03-04T04:02:57;101476.41;;;6.21;100.00
69058;BME280;56128;37.534;-122.308;2023-03-04T04:05:25;101470.34;;;6.17;100.00
69058;BME280;56128;37.534;-122.308;2023-03-04T04:07:51;101471.22;;;6.18;100.00
69058;BME280;56128;37.534;-122.308;2023-03-04T04:10:17;101462.50;;;6.14;100.00
69058;BME280;56128;37.534;-122.308;2023-03-04T04:12:43;101458.13;;;6.13;100.00
69058;BME280;56128;37.534;-122.308;2023-03-04T04:15:11;101453.03;;;6.09;100.00
69058;BME280;56128;37.534;-122.308;2023-03-04T04:17:37;101439.25;;;6.00;100.00
69058;BME280;56128;37.534;-122.308;2023-03-04T04:20:05;101445.41;;;6.01;100.00
69058;BME280;56128;37.534;-122.308;2023-03-04T04:22:31;101451.72;;;5.98;100.00
69058;BME280;56128;37.534;-122.308;2023-03-04T04:24:57;101445.72;;;5.93;100.00
69058;BME280;56128;37.534;-122.308;2023-03-04T04:27:23;101443.22;;;5.90;100.00
69058;BME280;56128;37.534;-122.308;2023-03-04T04:29:50;101448.66;;;5.87;100.00
69058;BME280;56128;37.534;-122.308;2023-03-04T04:32:16;101445.28;;;5.83;100.00
69058;BME280;56128;37.534;-122.308;2023-03-04T04:34:42;101437.53;;;5.79;100.00
69058;BME280;56128;37.534;-122.308;2023-03-04T04:37:08;101424.38;;;5.76;100.00
69058;BME280;56128;37.534;-122.308;2023-03-04T04:39:38;101428.00;;;5.75;100.00
69058;BME280;56128;37.534;-122.308;2023-03-04T04:42:09;101436.00;;;5.73;100.00
69058;BME280;56128;37.534;-122.308;2023-03-04T04:44:35;101432.59;;;5.71;100.00
69058;BME280;56128;37.534;-122.308;2023-03-04T04:47:04;101425.66;;;5.67;100.00
69058;BME280;56128;37.534;-122.308;2023-03-04T04:49:31;101423.16;;;5.64;100.00
69058;BME280;56128;37.534;-122.308;2023-03-04T04:51:58;101423.09;;;5.65;100.00
69058;BME280;56128;37.534;-122.308;2023-03-04T04:54:24;101423.25;;;5.62;100.00
69058;BME280;56128;37.534;-122.308;2023-03-04T04:56:50;101417.06;;;5.62;100.00
69058;BME280;56128;37.534;-122.308;2023-03-04T04:59:17;101415.41;;;5.59;100.00
69058;BME280;56128;37.534;-122.308;2023-03-04T05:01:43;101427.66;;;5.62;100.00
69058;BME280;56128;37.534;-122.308;2023-03-04T05:04:09;101416.31;;;5.58;100.00
69058;BME280;56128;37.534;-122.308;2023-03-04T05:06:35;101412.75;;;5.59;100.00
69058;BME280;56128;37.534;-122.308;2023-03-04T05:09:02;101423.63;;;5.53;100.00
69058;BME280;56128;37.534;-122.308;2023-03-04T05:11:29;101435.84;;;5.57;100.00
69058;BME280;56128;37.534;-122.308;2023-03-04T05:13:55;101424.44;;;5.55;100.00
69058;BME280;56128;37.534;-122.308;2023-03-04T05:16:21;101409.59;;;5.51;100.00
69058;BME280;56128;37.534;-122.308;2023-03-04T05:18:47;101417.56;;;5.51;100.00
69058;BME280;56128;37.534;-122.308;2023-03-04T05:21:14;101430.88;;;5.49;100.00
69058;BME280;56128;37.534;-122.308;2023-03-04T05:23:42;101436.41;;;5.45;100.00
69058;BME280;56128;37.534;-122.308;2023-03-04T05:26:11;101423.31;;;5.40;100.00
69058;BME280;56128;37.534;-122.308;2023-03-04T05:28:38;101425.13;;;5.40;100.00
69058;BME280;56128;37.534;-122.308;2023-03-04T05:31:04;101420.84;;;5.35;100.00
69058;BME280;56128;37.534;-122.308;2023-03-04T05:33:31;101430.69;;;5.33;100.00
69058;BME280;56128;37.534;-122.308;2023-03-04T05:35:57;101430.81;;;5.30;100.00
69058;BME280;56128;37.534;-122.308;2023-03-04T05:38:23;101428.31;;;5.27;100.00
69058;BME280;56128;37.534;-122.308;2023-03-04T05:40:58;101434.53;;;5.26;100.00
69058;BME280;56128;37.534;-122.308;2023-03-04T05:43:25;101433.88;;;5.21;100.00
69058;BME280;56128;37.534;-122.308;2023-03-04T05:45:53;101433.06;;;5.19;100.00
69058;BME280;56128;37.534;-122.308;2023-03-04T05:48:19;101439.31;;;5.18;100.00
69058;BME280;56128;37.534;-122.308;2023-03-04T05:50:46;101454.28;;;5.19;100.00
69058;BME280;56128;37.534;-122.308;2023-03-04T05:53:12;101460.53;;;5.18;100.00
69058;BME280;56128;37.534;-122.308;2023-03-04T05:55:39;101452.63;;;5.16;100.00
69058;BME280;56128;37.534;-122.308;2023-03-04T05:58:05;101451.78;;;5.16;100.00
69058;BME280;56128;37.534;-122.308;2023-03-04T06:00:31;101443.09;;;5.12;100.00
69058;BME280;56128;37.534;-122.308;2023-03-04T06:02:57;101430.88;;;5.08;100.00
69058;BME280;56128;37.534;-122.308;2023-03-04T06:05:23;101430.16;;;5.04;100.00
69058;BME280;56128;37.534;-122.308;2023-03-04T06:07:50;101446.00;;;5.06;100.00
69058;BME280;56128;37.534;-122.308;2023-03-04T06:10:17;101443.53;;;5.01;100.00
69058;BME280;56128;37.534;-122.308;2023-03-04T06:12:43;101446.25;;;5.00;100.00
69058;BME280;56128;37.534;-122.308;2023-03-04T06:15:10;101445.38;;;4.99;100.00
69058;BME280;56128;37.534;-122.308;2023-03-04T06:17:37;101430.47;;;4.97;100.00
69058;BME280;56128;37.534;-122.308;2023-03-04T06:20:04;101418.16;;;4.96;100.00
69058;BME280;56128;37.534;-122.308;2023-03-04T06:22:32;101419.16;;;4.93;100.00
69058;BME280;56128;37.534;-122.308;2023-03-04T06:24:59;101413.84;;;4.93;100.00
69058;BME280;56128;37.534;-122.308;2023-03-04T06:27:26;101411.31;;;4.90;100.00
69058;BME280;56128;37.534;-122.308;2023-03-04T06:29:52;101406.91;;;4.89;100.00
69058;BME280;56128;37.534;-122.308;2023-03-04T06:32:19;101400.84;;;4.87;100.00
69058;BME280;56128;37.534;-122.308;2023-03-04T06:34:45;101400.88;;;4.85;100.00
69058;BME280;56128;37.534;-122.308;2023-03-04T06:37:11;101414.09;;;4.87;100.00
69058;BME280;56128;37.534;-122.308;2023-03-04T06:39:38;101410.56;;;4.86;100.00
69058;BME280;56128;37.534;-122.308;2023-03-04T06:42:04;101396.56;;;4.83;100.00
69058;BME280;56128;37.534;-122.308;2023-03-04T06:44:30;101399.88;;;4.88;100.00
69058;BME280;56128;37.534;-122.308;2023-03-04T06:46:56;101387.56;;;4.87;100.00
69058;BME280;56128;37.534;-122.308;2023-03-04T06:49:23;101392.00;;;4.86;100.00
69058;BME280;56128;37.534;-122.308;2023-03-04T06:51:49;101398.13;;;4.88;100.00
69058;BME280;56128;37.534;-122.308;2023-03-04T06:54:15;101389.28;;;4.88;100.00
69058;BME280;56128;37.534;-122.308;2023-03-04T06:56:41;101399.03;;;4.87;100.00
69058;BME280;56128;37.534;-122.308;2023-03-04T06:59:08;101395.66;;;4.84;100.00
69058;BME280;56128;37.534;-122.308;2023-03-04T07:01:34;101393.06;;;4.82;100.00
69058;BME280;56128;37.534;-122.308;2023-03-04T07:04:01;101387.84;;;4.81;100.00
69058;BME280;56128;37.534;-122.308;2023-03-04T07:06:28;101371.25;;;4.76;100.00
69058;BME280;56128;37.534;-122.308;2023-03-04T07:08:55;101365.81;;;4.79;100.00
69058;BME280;56128;37.534;-122.308;2023-03-04T07:11:22;101379.06;;;4.79;100.00
69058;BME280;56128;37.534;-122.308;2023-03-04T07:13:49;101391.53;;;4.77;100.00
69058;BME280;56128;37.534;-122.308;2023-03-04T07:16:18;101380.22;;;4.73;100.00
69058;BME280;56128;37.534;-122.308;2023-03-04T07:18:45;101388.09;;;4.75;100.00
69058;BME280;56128;37.534;-122.308;2023-03-04T07:21:14;101379.47;;;4.69;100.00
69058;BME280;56128;37.534;-122.308;2023-03-04T07:23:40;101379.47;;;4.69;100.00
69058;BME280;56128;37.534;-122.308;2023-03-04T07:26:07;101376.94;;;4.66;100.00
69058;BME280;56128;37.534;-122.308;2023-03-04T07:28:34;101370.84;;;4.64;100.00
69058;BME280;56128;37.534;-122.308;2023-03-04T07:31:10;101361.34;;;4.59;100.00
69058;BME280;56128;37.534;-122.308;2023-03-04T07:33:37;101368.63;;;4.53;100.00
69058;BME280;56128;37.534;-122.308;2023-03-04T07:36:03;101365.16;;;4.51;100.00
69058;BME280;56128;37.534;-122.308;2023-03-04T07:38:29;101365.16;;;4.51;100.00
69058;BME280;56128;37.534;-122.308;2023-03-04T07:40:57;101359.94;;;4.50;100.00
69058;BME280;56128;37.534;-122.308;2023-03-04T07:43:23;101351.41;;;4.43;100.00
69058;BME280;56128;37.534;-122.308;2023-03-04T07:45:50;101347.34;;;4.34;100.00
69058;BME280;56128;37.534;-122.308;2023-03-04T07:48:16;101345.59;;;4.33;100.00
69058;BME280;56128;37.534;-122.308;2023-03-04T07:50:42;101345.59;;;4.33;100.00
69058;BME280;56128;37.534;-122.308;2023-03-04T07:53:08;101345.72;;;4.30;100.00
69058;BME280;56128;37.534;-122.308;2023-03-04T07:55:35;101348.50;;;4.27;100.00
69058;BME280;56128;37.534;-122.308;2023-03-04T07:58:01;101352.25;;;4.21;100.00
69058;BME280;56128;37.534;-122.308;2023-03-04T08:00:28;101350.53;;;4.20;100.00
69058;BME280;56128;37.534;-122.308;2023-03-04T08:02:54;101348.69;;;4.22;100.00
69058;BME280;56128;37.534;-122.308;2023-03-04T08:05:20;101351.53;;;4.18;100.00
69058;BME280;56128;37.534;-122.308;2023-03-04T08:07:46;101346.09;;;4.21;100.00
69058;BME280;56128;37.534;-122.308;2023-03-04T08:10:12;101331.25;;;4.17;100.00
69058;BME280;56128;37.534;-122.308;2023-03-04T08:12:39;101338.22;;;4.19;100.00
69058;BME280;56128;37.534;-122.308;2023-03-04T08:15:05;101333.78;;;4.20;100.00
69058;BME280;56128;37.534;-122.308;2023-03-04T08:17:32;101327.72;;;4.16;100.00
69058;BME280;56128;37.534;-122.308;2023-03-04T08:19:58;101330.38;;;4.16;100.00
69058;BME280;56128;37.534;-122.308;2023-03-04T08:22:24;101331.56;;;4.09;100.00
69058;BME280;56128;37.534;-122.308;2023-03-04T08:24:50;101323.66;;;4.07;100.00
69058;BME280;56128;37.534;-122.308;2023-03-04T08:27:17;101324.53;;;4.08;100.00
69058;BME280;56128;37.534;-122.308;2023-03-04T08:29:43;101323.91;;;4.01;100.00
69058;BME280;56128;37.534;-122.308;2023-03-04T08:32:09;101323.16;;;3.98;100.00
69058;BME280;56128;37.534;-122.308;2023-03-04T08:34:38;101345.22;;;3.98;100.00
69058;BME280;56128;37.534;-122.308;2023-03-04T08:37:05;101355.00;;;3.96;100.00
69058;BME280;56128;37.534;-122.308;2023-03-04T08:39:31;101341.00;;;3.94;100.00
69058;BME280;56128;37.534;-122.308;2023-03-04T08:42:00;101336.69;;;3.92;100.00
69058;BME280;56128;37.534;-122.308;2023-03-04T08:44:26;101335.94;;;3.88;100.00
69058;BME280;56128;37.534;-122.308;2023-03-04T08:46:52;101341.97;;;3.92;100.00
69058;BME280;56128;37.534;-122.308;2023-03-04T08:49:19;101336.84;;;3.87;100.00
69058;BME280;56128;37.534;-122.308;2023-03-04T08:51:45;101343.00;;;3.87;100.00
69058;BME280;56128;37.534;-122.308;2023-03-04T08:54:11;101343.88;;;3.88;100.00
69058;BME280;56128;37.534;-122.308;2023-03-04T08:56:39;101337.75;;;3.86;100.00
69058;BME280;56128;37.534;-122.308;2023-03-04T08:59:06;101335.25;;;3.83;100.00
69058;BME280;56128;37.534;-122.308;2023-03-04T09:01:32;101342.25;;;3.84;100.00
69058;BME280;56128;37.534;-122.308;2023-03-04T09:03:58;101343.19;;;3.83;100.00
69058;BME280;56128;37.534;-122.308;2023-03-04T09:06:24;101348.28;;;3.87;100.00
69058;BME280;56128;37.534;-122.308;2023-03-04T09:08:50;101346.53;;;3.88;100.00
69058;BME280;56128;37.534;-122.308;2023-03-04T09:11:17;101341.31;;;3.85;100.00
69058;BME280;56128;37.534;-122.308;2023-03-04T09:13:43;101323.16;;;3.76;100.00
69058;BME280;56128;37.534;-122.308;2023-03-04T09:16:13;101328.31;;;3.79;100.00
69058;BME280;56128;37.534;-122.308;2023-03-04T09:18:40;101333.75;;;3.76;100.00
69058;BME280;56128;37.534;-122.308;2023-03-04T09:21:07;101319.94;;;3.67;100.00
69058;BME280;56128;37.534;-122.308;2023-03-04T09:23:35;101320.06;;;3.64;100.00
69058;BME280;56128;37.534;-122.308;2023-03-04T09:26:15;101329.91;;;3.61;100.00
69058;BME280;56128;37.534;-122.308;2023-03-04T09:28:41;101330.00;;;3.57;100.00
69058;BME280;56128;37.534;-122.308;2023-03-04T09:31:12;101327.44;;;3.56;100.00
69058;BME280;56128;37.534;-122.308;2023-03-04T09:33:38;101327.44;;;3.56;100.00
69058;BME280;56128;37.534;-122.308;2023-03-04T09:36:10;101313.50;;;3.51;100.00
69058;BME280;56128;37.534;-122.308;2023-03-04T09:38:37;101310.75;;;3.54;100.00
69058;BME280;56128;37.534;-122.308;2023-03-04T09:41:07;101314.13;;;3.57;100.00
69058;BME280;56128;37.534;-122.308;2023-03-04T09:43:34;101297.28;;;3.60;100.00
69058;BME280;56128;37.534;-122.308;2023-03-04T09:46:04;101304.44;;;3.58;100.00
69058;BME280;56128;37.534;-122.308;2023-03-04T09:48:43;101293.78;;;3.60;100.00
69058;BME280;56128;37.534;-122.308;2023-03-04T09:56:35;101291.88;;;3.63;100.00
69058;BME280;56128;37.534;-122.308;2023-03-04T10:00:23;101279.47;;;3.65;100.00
69058;BME280;56128;37.534;-122.308;2023-03-04T10:05:32;101259.88;;;3.69;100.00
69058;BME280;56128;37.534;-122.308;2023-03-04T10:11:34;101250.13;;;3.70;100.00
69058;BME280;56128;37.534;-122.308;2023-03-04T10:16:52;101243.63;;;3.79;100.00
69058;BME280;56128;37.534;-122.308;2023-03-04T10:25:24;101240.06;;;3.80;100.00
69058;BME280;56128;37.534;-122.308;2023-03-04T10:28:04;101245.09;;;3.86;100.00
69058;BME280;56128;37.534;-122.308;2023-03-04T10:33:34;101237.09;;;3.87;100.00
69058;BME280;56128;37.534;-122.308;2023-03-04T10:41:36;101220.09;;;3.93;100.00
69058;BME280;56128;37.534;-122.308;2023-03-04T10:44:13;101242.78;;;4.00;100.00
69058;BME280;56128;37.534;-122.308;2023-03-04T10:46:45;101249.91;;;3.98;100.00
69058;BME280;56128;37.534;-122.308;2023-03-04T10:49:14;101236.53;;;4.01;100.00
69058;BME280;56128;37.534;-122.308;2023-03-04T10:52:14;101231.91;;;4.06;100.00
69058;BME280;56128;37.534;-122.308;2023-03-04T10:54:49;101222.19;;;4.07;100.00
69058;BME280;56128;37.534;-122.308;2023-03-04T10:59:54;101190.25;;;3.89;100.00
69058;BME280;56128;37.534;-122.308;2023-03-04T11:02:32;101203.91;;;4.01;100.00
69058;BME280;56128;37.534;-122.308;2023-03-04T11:07:47;101189.94;;;3.97;100.00
69058;BME280;56128;37.534;-122.308;2023-03-04T11:13:07;101179.78;;;3.86;100.00
69058;BME280;56128;37.534;-122.308;2023-03-04T11:21:05;101171.56;;;3.93;100.00
69058;BME280;56128;37.534;-122.308;2023-03-04T11:23:43;101181.31;;;3.92;100.00
69058;BME280;56128;37.534;-122.308;2023-03-04T11:26:18;101183.72;;;3.98;100.00
69058;BME280;56128;37.534;-122.308;2023-03-04T11:28:57;101161.72;;;3.96;100.00
69058;BME280;56128;37.534;-122.308;2023-03-04T11:31:35;101173.78;;;4.03;100.00
69058;BME280;56128;37.534;-122.308;2023-03-04T11:34:27;101178.16;;;4.04;100.00
69058;BME280;56128;37.534;-122.308;2023-03-04T11:37:07;101184.31;;;4.05;100.00
69058;BME280;56128;37.534;-122.308;2023-03-04T11:44:58;101219.59;;;4.05;100.00
69058;BME280;56128;37.534;-122.308;2023-03-04T11:47:34;101216.00;;;4.06;100.00
69058;BME280;56128;37.534;-122.308;2023-03-04T11:55:42;101174.25;;;4.13;100.00
69058;BME280;56128;37.534;-122.308;2023-03-04T11:58:20;101164.41;;;4.17;100.00
69058;BME280;56128;37.534;-122.308;2023-03-04T12:01:13;101169.16;;;4.09;100.00
69058;BME280;56128;37.534;-122.308;2023-03-04T12:04:11;101187.44;;;4.15;100.00
69058;BME280;56128;37.534;-122.308;2023-03-04T12:06:50;101189.16;;;4.16;100.00
69058;BME280;56128;37.534;-122.308;2023-03-04T12:09:42;101180.28;;;4.17;100.00
69058;BME280;56128;37.534;-122.308;2023-03-04T12:21:12;101182.00;;;4.18;100.00
69058;BME280;56128;37.534;-122.308;2023-03-04T12:24:07;101175.00;;;4.17;100.00
69058;BME280;56128;37.534;-122.308;2023-03-04T12:32:50;101177.69;;;4.15;100.00
69058;BME280;56128;37.534;-122.308;2023-03-04T12:35:27;101175.72;;;4.20;100.00
69058;BME280;56128;37.534;-122.308;2023-03-04T12:38:05;101149.16;;;4.01;100.00
69058;BME280;56128;37.534;-122.308;2023-03-04T12:43:30;101201.06;;;4.26;100.00
69058;BME280;56128;37.534;-122.308;2023-03-04T12:46:03;101184.19;;;4.29;100.00
69058;BME280;56128;37.534;-122.308;2023-03-04T12:51:35;101167.44;;;4.28;100.00
69058;BME280;56128;37.534;-122.308;2023-03-04T12:54:31;101154.47;;;4.22;100.00
69058;BME280;56128;37.534;-122.308;2023-03-04T12:57:24;101168.56;;;4.22;100.00
69058;BME280;56128;37.534;-122.308;2023-03-04T13:10:29;101134.72;;;4.09;100.00
69058;BME280;56128;37.534;-122.308;2023-03-04T13:12:58;101105.47;;;3.91;100.00
69058;BME280;56128;37.534;-122.308;2023-03-04T13:15:26;101136.44;;;4.10;100.00
69058;BME280;56128;37.534;-122.308;2023-03-04T13:18:02;101131.00;;;4.13;100.00
69058;BME280;56128;37.534;-122.308;2023-03-04T13:20:44;101117.09;;;4.07;100.00
69058;BME280;56128;37.534;-122.308;2023-03-04T13:31:05;101137.50;;;4.26;100.00
69058;BME280;56128;37.534;-122.308;2023-03-04T13:33:47;101135.66;;;4.28;100.00
69058;BME280;56128;37.534;-122.308;2023-03-04T13:36:50;101134.66;;;4.31;100.00
69058;BME280;56128;37.534;-122.308;2023-03-04T13:41:48;101137.41;;;4.48;100.00
69058;BME280;56128;37.534;-122.308;2023-03-04T13:47:21;101122.44;;;4.47;100.00
69058;BME280;56128;37.534;-122.308;2023-03-04T13:50:29;101137.88;;;4.58;100.00
69058;BME280;56128;37.534;-122.308;2023-03-04T13:53:19;101128.91;;;4.61;100.00
69058;BME280;56128;37.534;-122.308;2023-03-04T13:56:52;101129.63;;;4.64;100.00
69058;BME280;56128;37.534;-122.308;2023-03-04T14:04:00;101133.78;;;4.70;100.00
69058;BME280;56128;37.534;-122.308;2023-03-04T14:06:30;101133.59;;;4.75;100.00
69058;BME280;56128;37.534;-122.308;2023-03-04T14:08:57;101107.34;;;4.68;100.00
69058;BME280;56128;37.534;-122.308;2023-03-04T14:11:34;101115.03;;;4.75;100.00
69058;BME280;56128;37.534;-122.308;2023-03-04T14:14:05;101104.34;;;4.76;100.00
69058;BME280;56128;37.534;-122.308;2023-03-04T14:16:38;101113.50;;;4.88;100.00